createdAt,value
2022-10-13T00:02:29.035Z,22.50
2022-10-13T00:05:51.084Z,26.58
2022-10-13T00:09:14.952Z,26.98
2022-10-13T00:12:40.420Z,22.70
2022-10-13T00:16:03.573Z,30.15
2022-10-13T00:19:27.835Z,33.53
2022-10-13T00:22:51.831Z,27.17
2022-10-13T00:26:15.024Z,25.50
2022-10-13T00:29:39.069Z,23.17
2022-10-13T00:33:00.608Z,26.23
2022-10-13T00:36:23.192Z,26.60
2022-10-13T00:39:44.702Z,26.50
2022-10-13T00:43:16.321Z,28.38
2022-10-13T00:46:40.526Z,30.33
2022-10-13T00:50:03.216Z,24.40
2022-10-13T00:53:33.078Z,24.70
2022-10-13T00:56:57.197Z,20.63
2022-10-13T01:00:18.792Z,25.75
2022-10-13T01:03:40.390Z,27.17
2022-10-13T01:07:02.715Z,24.77
2022-10-13T01:10:39.947Z,25.95
2022-10-13T01:14:01.385Z,28.80
2022-10-13T01:17:47.477Z,21.30
2022-10-13T01:21:26.970Z,24.33
2022-10-13T01:24:57.543Z,24.27
2022-10-13T01:28:37.318Z,24.80
2022-10-13T01:32:12.235Z,24.58
2022-10-13T01:35:41.588Z,25.17
2022-10-13T01:39:03.094Z,24.08
2022-10-13T01:42:35.409Z,26.00
2022-10-13T01:46:15.688Z,26.60
2022-10-13T01:49:40.745Z,23.90
2022-10-13T01:53:05.212Z,27.15
2022-10-13T01:56:29.195Z,23.48
2022-10-13T01:59:52.971Z,31.80
2022-10-13T02:03:35.483Z,27.40
2022-10-13T02:07:23.072Z,32.67
2022-10-13T02:10:52.209Z,31.25
2022-10-13T02:14:21.368Z,32.80
2022-10-13T02:17:42.921Z,69.07
2022-10-13T02:21:07.231Z,33.63
2022-10-13T02:24:31.257Z,58.00
2022-10-13T02:27:53.438Z,52.45
2022-10-13T02:31:16.288Z,29.10
2022-10-13T02:34:37.831Z,49.47
2022-10-13T02:37:59.761Z,30.90
2022-10-13T02:41:21.279Z,30.88
2022-10-13T02:44:42.792Z,38.10
2022-10-13T02:48:07.794Z,30.05
2022-10-13T02:51:34.144Z,34.33
2022-10-13T02:54:59.223Z,25.25
2022-10-13T02:58:20.709Z,25.35
2022-10-13T03:01:44.340Z,24.80
2022-10-13T03:05:09.077Z,27.45
2022-10-13T03:08:38.350Z,26.98
2022-10-13T03:12:02.573Z,27.63
2022-10-13T03:15:26.739Z,30.17
2022-10-13T03:18:48.277Z,32.03
2022-10-13T03:22:09.912Z,26.27
2022-10-13T03:25:34.136Z,27.77
2022-10-13T03:28:55.731Z,27.02
2022-10-13T03:32:18.461Z,26.85
2022-10-13T03:35:42.516Z,24.67
2022-10-13T03:39:04.091Z,23.45
2022-10-13T03:42:25.656Z,24.63
2022-10-13T03:46:00.367Z,22.10
2022-10-13T03:49:21.945Z,20.48
2022-10-13T03:52:43.459Z,23.42
2022-10-13T03:56:06.816Z,22.92
2022-10-13T03:59:34.183Z,26.77
2022-10-13T04:03:00.731Z,28.67
2022-10-13T04:06:23.202Z,26.33
2022-10-13T04:09:44.723Z,24.83
2022-10-13T04:13:08.713Z,38.58
2022-10-13T04:16:31.176Z,25.88
2022-10-13T04:19:54.976Z,31.13
2022-10-13T04:23:16.683Z,27.50
2022-10-13T04:26:38.452Z,28.90
2022-10-13T04:30:00.135Z,23.30
2022-10-13T04:33:24.204Z,27.45
2022-10-13T04:36:45.820Z,24.98
2022-10-13T04:40:07.863Z,27.48
2022-10-13T04:43:31.567Z,31.10
2022-10-13T04:46:55.573Z,35.65
2022-10-13T04:50:19.768Z,25.98
2022-10-13T04:53:41.402Z,26.27
2022-10-13T04:57:03.087Z,26.77
2022-10-13T05:00:27.165Z,20.80
2022-10-13T05:03:57.020Z,23.98
2022-10-13T05:07:18.947Z,21.52
2022-10-13T05:10:40.621Z,26.88
2022-10-13T05:14:07.334Z,22.58
2022-10-13T05:17:34.989Z,19.75
2022-10-13T05:20:57.084Z,22.67
2022-10-13T05:24:20.906Z,25.15
2022-10-13T05:27:42.557Z,24.17
2022-10-13T05:31:23.929Z,25.95
2022-10-13T05:35:07.129Z,24.42
2022-10-13T05:38:56.705Z,27.10
2022-10-13T05:45:43.181Z,22.98
2022-10-13T05:49:04.888Z,27.40
2022-10-13T05:52:27.143Z,29.42
2022-10-13T05:55:48.740Z,26.83
2022-10-13T05:59:14.692Z,24.17
2022-10-13T06:02:57.374Z,30.10
2022-10-13T06:06:19.193Z,27.98
2022-10-13T06:09:43.973Z,21.33
2022-10-13T06:13:05.521Z,20.58
2022-10-13T06:16:27.096Z,20.52
2022-10-13T06:19:51.861Z,20.20
2022-10-13T06:23:15.458Z,24.75
2022-10-13T06:26:37.057Z,21.77
2022-10-13T06:29:58.696Z,19.95
2022-10-13T06:33:25.390Z,25.20
2022-10-13T06:36:47.299Z,22.10
2022-10-13T06:40:12.060Z,23.63
2022-10-13T06:43:40.399Z,20.83
2022-10-13T06:47:03.937Z,18.55
2022-10-13T06:50:25.524Z,18.02
2022-10-13T06:53:47.223Z,17.38
2022-10-13T06:57:08.765Z,17.85
2022-10-13T07:00:30.482Z,17.73
2022-10-13T07:03:52.153Z,19.23
2022-10-13T07:07:16.953Z,17.60
2022-10-13T07:10:39.423Z,18.35
2022-10-13T07:17:23.598Z,20.42
2022-10-13T07:20:45.279Z,17.10
2022-10-13T07:24:10.056Z,19.63
2022-10-13T07:27:33.989Z,21.02
2022-10-13T07:30:57.838Z,18.52
2022-10-13T07:34:22.102Z,15.95
2022-10-13T07:37:43.632Z,19.50
2022-10-13T07:41:07.489Z,18.15
2022-10-13T07:44:31.305Z,17.25
2022-10-13T07:47:52.856Z,18.23
2022-10-13T07:51:17.536Z,16.08
2022-10-13T07:54:41.357Z,17.63
2022-10-13T07:58:03.826Z,17.17
2022-10-13T08:01:25.556Z,15.40
2022-10-13T08:04:49.550Z,17.10
2022-10-13T08:08:15.263Z,19.52
2022-10-13T08:11:39.299Z,17.48
2022-10-13T08:15:06.426Z,13.63
2022-10-13T08:18:29.323Z,17.20
2022-10-13T08:21:59.237Z,20.35
2022-10-13T08:25:24.563Z,17.92
2022-10-13T08:29:02.930Z,15.98
2022-10-13T08:32:30.437Z,14.00
2022-10-13T08:35:52.938Z,16.35
2022-10-13T08:39:14.644Z,17.30
2022-10-13T08:42:36.189Z,12.48
2022-10-13T08:46:00.484Z,15.52
2022-10-13T08:49:24.981Z,10.63
2022-10-13T08:53:01.980Z,10.27
2022-10-13T08:56:27.876Z,17.85
2022-10-13T08:59:49.876Z,14.73
2022-10-13T09:03:25.304Z,13.52
2022-10-13T09:07:19.419Z,14.27
2022-10-13T09:10:51.895Z,14.82
2022-10-13T09:14:22.048Z,10.82
2022-10-13T09:17:43.796Z,16.35
2022-10-13T09:21:16.510Z,15.63
2022-10-13T09:24:38.047Z,15.80
2022-10-13T09:28:01.042Z,15.90
2022-10-13T09:31:28.468Z,18.63
2022-10-13T09:34:51.568Z,13.68
2022-10-13T09:38:21.828Z,8.68
2022-10-13T09:41:46.171Z,13.75
2022-10-13T09:45:16.652Z,13.45
2022-10-13T09:48:46.050Z,12.57
2022-10-13T09:52:13.702Z,18.88
2022-10-13T09:55:38.863Z,13.70
2022-10-13T09:59:46.979Z,13.77
2022-10-13T10:03:23.068Z,11.13
2022-10-13T10:06:45.939Z,12.20
2022-10-13T10:10:23.217Z,14.35
2022-10-13T10:13:44.797Z,10.63
2022-10-13T10:17:09.360Z,11.75
2022-10-13T10:20:52.490Z,11.25
2022-10-13T10:24:28.586Z,13.75
2022-10-13T10:28:19.404Z,11.98
2022-10-13T10:32:16.350Z,11.77
2022-10-13T10:35:54.601Z,8.55
2022-10-13T10:39:22.030Z,8.77
2022-10-13T10:43:01.152Z,11.93
2022-10-13T10:46:29.222Z,11.30
2022-10-13T10:53:22.813Z,14.43
2022-10-13T10:56:53.200Z,14.15
2022-10-13T11:00:22.370Z,13.10
2022-10-13T11:04:10.589Z,14.00
2022-10-13T11:07:32.068Z,16.85
2022-10-13T11:11:37.482Z,34.17
2022-10-13T11:15:11.465Z,10.38
2022-10-13T11:18:54.887Z,13.98
2022-10-13T11:22:19.306Z,12.50
2022-10-13T11:25:48.044Z,10.60
2022-10-13T11:29:20.016Z,10.38
2022-10-13T11:32:55.390Z,12.40
2022-10-13T11:36:35.242Z,10.48
2022-10-13T11:40:18.225Z,14.90
2022-10-13T11:43:42.630Z,12.90
2022-10-13T11:47:48.996Z,14.50
2022-10-13T11:51:16.654Z,15.95
2022-10-13T11:58:27.294Z,13.48
2022-10-13T12:01:54.235Z,11.95
2022-10-13T12:05:25.722Z,12.53
2022-10-13T12:08:52.465Z,18.15
2022-10-13T12:12:17.134Z,12.73
2022-10-13T12:15:44.255Z,13.63
2022-10-13T12:19:29.088Z,11.30
2022-10-13T12:22:51.982Z,11.60
2022-10-13T12:26:17.918Z,13.40
2022-10-13T12:29:40.898Z,13.40
2022-10-13T12:33:04.657Z,14.88
2022-10-13T12:36:30.989Z,10.38
2022-10-13T12:39:56.461Z,10.38
2022-10-13T12:43:25.214Z,11.52
2022-10-13T12:46:52.118Z,10.30
2022-10-13T12:50:31.602Z,15.63
2022-10-13T12:53:53.348Z,11.45
2022-10-13T12:57:22.663Z,17.88
2022-10-13T13:00:47.171Z,13.40
2022-10-13T13:04:38.222Z,16.27
2022-10-13T13:08:00.747Z,13.93
2022-10-13T13:11:32.785Z,12.70
2022-10-13T13:14:55.339Z,17.00
2022-10-13T13:18:41.782Z,17.60
2022-10-13T13:22:09.323Z,15.68
2022-10-13T13:25:30.941Z,13.98
2022-10-13T13:28:54.777Z,13.60
2022-10-13T13:32:20.242Z,11.05
2022-10-13T13:35:44.230Z,12.70
2022-10-13T13:39:14.994Z,18.77
2022-10-13T13:42:36.576Z,13.88
2022-10-13T13:46:00.878Z,15.15
2022-10-13T13:49:22.458Z,14.30
2022-10-13T13:52:46.337Z,14.23
2022-10-13T13:56:13.921Z,13.27
2022-10-13T13:59:35.531Z,19.58
2022-10-13T14:02:57.750Z,11.93
2022-10-13T14:06:20.280Z,18.63
2022-10-13T14:09:41.882Z,13.07
2022-10-13T14:13:03.925Z,12.75
2022-10-13T14:16:25.519Z,12.45
2022-10-13T14:19:49.585Z,12.60
2022-10-13T14:23:11.105Z,13.50
2022-10-13T14:26:32.648Z,14.52
2022-10-13T14:29:54.260Z,14.48
2022-10-13T14:33:19.408Z,17.13
2022-10-13T14:36:45.760Z,12.15
2022-10-13T14:40:07.717Z,9.35
2022-10-13T14:43:32.215Z,16.58
2022-10-13T14:46:53.859Z,22.15
2022-10-13T14:50:17.863Z,15.63
2022-10-13T14:53:41.508Z,15.68
2022-10-13T14:57:05.548Z,13.25
2022-10-13T15:00:30.674Z,13.77
2022-10-13T15:03:52.564Z,15.90
2022-10-13T15:07:14.175Z,12.23
2022-10-13T15:10:40.328Z,13.52
2022-10-13T15:14:01.960Z,23.58
2022-10-13T15:17:23.509Z,18.38
2022-10-13T15:20:47.820Z,16.65
2022-10-13T15:24:11.417Z,13.98
2022-10-13T15:27:34.289Z,16.90
2022-10-13T15:30:57.377Z,14.27
2022-10-13T15:34:18.916Z,10.07
2022-10-13T15:37:42.714Z,18.77
2022-10-13T15:41:10.527Z,13.55
2022-10-13T15:44:50.938Z,12.52
2022-10-13T15:48:18.788Z,17.15
2022-10-13T15:51:40.333Z,17.92
2022-10-13T15:55:02.234Z,17.20
2022-10-13T15:58:26.096Z,19.33
2022-10-13T16:01:47.622Z,16.05
2022-10-13T16:05:10.876Z,14.18
2022-10-13T16:08:32.617Z,15.70
2022-10-13T16:11:56.388Z,13.52
2022-10-13T16:15:18.268Z,21.98
2022-10-13T16:18:40.490Z,20.63
2022-10-13T16:22:02.052Z,16.42
2022-10-13T16:25:23.579Z,19.48
2022-10-13T16:28:46.669Z,24.05
2022-10-13T16:32:08.542Z,22.33
2022-10-13T16:35:34.944Z,25.73
2022-10-13T16:38:56.535Z,16.10
2022-10-13T16:42:20.558Z,20.15
2022-10-13T16:45:59.228Z,22.30
2022-10-13T16:49:24.124Z,22.25
2022-10-13T16:52:47.185Z,20.75
2022-10-13T16:56:09.511Z,19.65
2022-10-13T16:59:33.078Z,24.33
2022-10-13T17:02:55.040Z,24.00
2022-10-13T17:06:20.820Z,21.95
2022-10-13T17:09:42.961Z,18.92
2022-10-13T17:13:04.509Z,26.95
2022-10-13T17:16:26.999Z,32.13
2022-10-13T17:19:48.593Z,22.27
2022-10-13T17:23:12.339Z,23.23
2022-10-13T17:26:46.180Z,17.90
2022-10-13T17:30:13.486Z,28.92
2022-10-13T17:33:39.064Z,27.97
2022-10-13T17:37:05.490Z,23.33
2022-10-13T17:40:26.982Z,27.85
2022-10-13T17:43:50.741Z,19.20
2022-10-13T17:47:14.983Z,17.05
2022-10-13T17:50:37.464Z,25.45
2022-10-13T17:54:04.946Z,20.67
2022-10-13T17:57:29.422Z,29.83
2022-10-13T18:01:12.267Z,18.83
2022-10-13T18:04:37.715Z,23.73
2022-10-13T18:07:59.279Z,23.42
2022-10-13T18:11:24.713Z,22.10
2022-10-13T18:14:49.205Z,20.30
2022-10-13T18:18:12.792Z,19.55
2022-10-13T18:21:34.374Z,19.10
2022-10-13T18:25:01.229Z,23.45
2022-10-13T18:28:22.781Z,21.70
2022-10-13T18:31:44.437Z,21.52
2022-10-13T18:35:09.192Z,21.05
2022-10-13T18:38:33.014Z,23.55
2022-10-13T18:41:57.992Z,18.00
2022-10-13T18:45:19.526Z,19.88
2022-10-13T18:48:43.621Z,22.83
2022-10-13T18:52:07.930Z,25.90
2022-10-13T18:55:29.487Z,27.83
2022-10-13T18:58:58.455Z,23.05
2022-10-13T19:02:20.754Z,22.58
2022-10-13T19:05:45.663Z,23.30
2022-10-13T19:09:13.522Z,25.05
2022-10-13T19:12:35.070Z,28.50
2022-10-13T19:16:02.802Z,30.58
2022-10-13T19:19:27.295Z,27.13
2022-10-13T19:22:48.814Z,29.90
2022-10-13T19:26:23.907Z,24.58
2022-10-13T19:29:53.479Z,26.65
2022-10-13T19:33:19.832Z,26.83
2022-10-13T19:36:44.480Z,30.75
2022-10-13T19:40:07.811Z,31.65
2022-10-13T19:43:29.948Z,33.13
2022-10-13T19:46:52.607Z,29.23
2022-10-13T19:50:19.809Z,26.20
2022-10-13T19:53:42.212Z,28.63
2022-10-13T19:57:06.314Z,25.38
2022-10-13T20:00:27.907Z,30.05
2022-10-13T20:03:52.504Z,31.05
2022-10-13T20:07:16.504Z,32.35
2022-10-13T20:10:42.502Z,33.47
2022-10-13T20:14:06.615Z,24.27
2022-10-13T20:17:28.123Z,23.85
2022-10-13T20:20:49.724Z,27.50
2022-10-13T20:24:15.261Z,29.52
2022-10-13T20:27:39.496Z,27.90
2022-10-13T20:31:07.158Z,30.33
2022-10-13T20:34:28.847Z,29.25
2022-10-13T20:37:50.349Z,28.25
2022-10-13T20:41:20.033Z,27.30
2022-10-13T20:44:43.881Z,30.33
2022-10-13T20:48:10.305Z,31.38
2022-10-13T20:51:34.161Z,34.33
2022-10-13T20:54:55.744Z,33.58
2022-10-13T20:58:17.251Z,38.55
2022-10-13T21:01:43.528Z,38.15
2022-10-13T21:05:05.195Z,39.60
2022-10-13T21:08:26.751Z,40.45
2022-10-13T21:11:48.269Z,33.70
2022-10-13T21:15:10.181Z,36.40
2022-10-13T21:18:33.958Z,35.38
2022-10-13T21:21:55.496Z,32.67
2022-10-13T21:25:20.000Z,33.08
2022-10-13T21:28:41.758Z,31.05
2022-10-13T21:32:03.302Z,34.22
2022-10-13T21:35:28.083Z,32.20
2022-10-13T21:38:58.389Z,33.55
2022-10-13T21:42:21.966Z,47.50
2022-10-13T21:45:43.463Z,33.65
2022-10-13T21:49:12.796Z,33.63
2022-10-13T21:52:38.319Z,30.27
2022-10-13T21:56:08.402Z,30.70
2022-10-13T21:59:32.214Z,30.20
2022-10-13T22:02:56.310Z,29.42
2022-10-13T22:06:19.616Z,25.33
2022-10-13T22:09:41.300Z,28.67
2022-10-13T22:13:02.791Z,33.42
2022-10-13T22:16:37.049Z,31.50
2022-10-13T22:19:58.610Z,30.88
2022-10-13T22:23:20.156Z,30.77
2022-10-13T22:26:46.079Z,28.23
2022-10-13T22:30:10.820Z,27.23
2022-10-13T22:33:33.907Z,27.50
2022-10-13T22:36:55.507Z,31.42
2022-10-13T22:40:19.510Z,33.03
2022-10-13T22:43:44.977Z,34.05
2022-10-13T22:47:07.053Z,33.38
2022-10-13T22:50:31.841Z,30.95
2022-10-13T22:53:53.836Z,39.47
2022-10-13T22:57:18.728Z,26.33
2022-10-13T23:00:42.644Z,25.98
2022-10-13T23:04:04.372Z,42.72
2022-10-13T23:07:28.827Z,46.75
2022-10-13T23:10:50.408Z,31.48
2022-10-13T23:14:14.288Z,43.80
2022-10-13T23:17:35.849Z,43.53
2022-10-13T23:20:57.361Z,27.85
2022-10-13T23:24:21.257Z,30.73
2022-10-13T23:27:42.740Z,32.15
2022-10-13T23:31:12.485Z,38.53
2022-10-13T23:34:34.061Z,41.25
2022-10-13T23:37:55.634Z,40.55
2022-10-13T23:41:19.359Z,38.05
2022-10-13T23:44:43.200Z,28.10
2022-10-13T23:48:05.588Z,33.35
2022-10-13T23:51:27.526Z,30.15
2022-10-13T23:54:49.075Z,35.83
2022-10-13T23:58:11.135Z,36.05
